RYR6FG LIBR-LIMC
Flight info
| Callsign | RYR6FG |
|---|---|
| Flight time | 1h 35m |
| Altitude | 38000 |
| Route | FASAN DCT BAR DCT GENGI DCT GITOD DCT OKBIS DCT VERUN DCT LOMED/N0330F180 M730 MIVKI T648 MEBUR |
| Aircraft | B738/M-SDE2E3FGHIRWXY/LB1 |
Departure
| Time | 2026-04-23 19:11 |
|---|---|
| Airport | Brindisi Airport (LIBR) |
Arrival
| Time | 2026-04-23 20:47 |
|---|---|
| Airport | Milan Malpensa International Airport (LIMC) |
| Time | Latitude | Longitude | Altitude | Speed | Heading |
|---|---|---|---|---|---|
| 2026-04-23 18:41 | 40.65886 | 17.94234 | 32 ft | 0 kts | 322° |
| 2026-04-23 19:01 | 40.65886 | 17.94233 | 32 ft | 1 kts | 322° |
| 2026-04-23 19:02 | 40.65891 | 17.94225 | 32 ft | 0 kts | 281° |
| 2026-04-23 19:02 | 40.65888 | 17.94221 | 32 ft | 0 kts | 207° |
| 2026-04-23 19:02 | 40.65886 | 17.94222 | 32 ft | 0 kts | 179° |
| 2026-04-23 19:02 | 40.65884 | 17.94224 | 32 ft | 1 kts | 144° |
| 2026-04-23 19:03 | 40.65864 | 17.94243 | 32 ft | 5 kts | 143° |
| 2026-04-23 19:03 | 40.65829 | 17.94278 | 32 ft | 3 kts | 144° |
| 2026-04-23 19:03 | 40.65808 | 17.94313 | 32 ft | 6 kts | 88° |
| 2026-04-23 19:03 | 40.65840 | 17.94378 | 31 ft | 9 kts | 52° |
| 2026-04-23 19:04 | 40.65868 | 17.94424 | 31 ft | 4 kts | 53° |
| 2026-04-23 19:04 | 40.65870 | 17.94427 | 30 ft | 0 kts | 53° |
| 2026-04-23 19:04 | 40.65874 | 17.94435 | 30 ft | 2 kts | 53° |
| 2026-04-23 19:04 | 40.65892 | 17.94466 | 30 ft | 6 kts | 53° |
| 2026-04-23 19:05 | 40.65927 | 17.94527 | 29 ft | 9 kts | 53° |
| 2026-04-23 19:05 | 40.65978 | 17.94615 | 26 ft | 14 kts | 52° |
| 2026-04-23 19:05 | 40.66020 | 17.94686 | 25 ft | 10 kts | 52° |
| 2026-04-23 19:05 | 40.66018 | 17.94760 | 25 ft | 10 kts | 128° |
| 2026-04-23 19:06 | 40.65957 | 17.94837 | 25 ft | 13 kts | 137° |
| 2026-04-23 19:06 | 40.65878 | 17.94933 | 25 ft | 16 kts | 137° |
| 2026-04-23 19:06 | 40.65803 | 17.95025 | 24 ft | 9 kts | 137° |
| 2026-04-23 19:06 | 40.65767 | 17.95070 | 23 ft | 0 kts | 136° |
| 2026-04-23 19:08 | 40.65767 | 17.95071 | 23 ft | 0 kts | 136° |
| 2026-04-23 19:08 | 40.65749 | 17.95093 | 23 ft | 6 kts | 137° |
| 2026-04-23 19:08 | 40.65699 | 17.95141 | 22 ft | 11 kts | 161° |
| 2026-04-23 19:09 | 40.65623 | 17.95094 | 23 ft | 13 kts | 230° |
| 2026-04-23 19:09 | 40.65580 | 17.95024 | 25 ft | 4 kts | 232° |
| 2026-04-23 19:09 | 40.65587 | 17.94998 | 26 ft | 4 kts | 313° |
| 2026-04-23 19:09 | 40.65590 | 17.94995 | 26 ft | 0 kts | 315° |
| 2026-04-23 19:10 | 40.65590 | 17.94994 | 26 ft | 0 kts | 315° |
| 2026-04-23 19:10 | 40.65638 | 17.94934 | 27 ft | 37 kts | 317° |
| 2026-04-23 19:10 | 40.65997 | 17.94497 | 28 ft | 100 kts | 316° |
| 2026-04-23 19:10 | 40.66637 | 17.93711 | 29 ft | 151 kts | 318° |
| 2026-04-23 19:11 | 40.67411 | 17.92700 | 517 ft | 156 kts | 317° |
| 2026-04-23 19:11 | 40.68124 | 17.91709 | 1311 ft | 147 kts | 320° |
| 2026-04-23 19:11 | 40.68931 | 17.90828 | 1773 ft | 156 kts | 327° |
| 2026-04-23 19:11 | 40.69791 | 17.89920 | 2166 ft | 168 kts | 324° |
| 2026-04-23 19:12 | 40.70395 | 17.89216 | 2380 ft | 180 kts | 322° |
| 2026-04-23 19:12 | 40.71721 | 17.87616 | 2790 ft | 208 kts | 322° |
| 2026-04-23 19:12 | 40.72826 | 17.86286 | 3212 ft | 223 kts | 322° |
| 2026-04-23 19:12 | 40.74014 | 17.84862 | 3585 ft | 240 kts | 322° |
| 2026-04-23 19:13 | 40.75275 | 17.83347 | 4121 ft | 250 kts | 322° |
| 2026-04-23 19:13 | 40.76550 | 17.81731 | 4754 ft | 257 kts | 314° |
| 2026-04-23 19:13 | 40.77327 | 17.79578 | 5363 ft | 273 kts | 284° |
| 2026-04-23 19:13 | 40.77384 | 17.77042 | 6002 ft | 283 kts | 270° |
| 2026-04-23 19:14 | 40.77218 | 17.74454 | 6652 ft | 288 kts | 268° |
| 2026-04-23 19:14 | 40.77047 | 17.71832 | 7354 ft | 290 kts | 270° |
| 2026-04-23 19:14 | 40.76918 | 17.69193 | 8083 ft | 292 kts | 271° |
| 2026-04-23 19:14 | 40.76987 | 17.66541 | 8772 ft | 291 kts | 284° |
| 2026-04-23 19:15 | 40.77658 | 17.64047 | 9500 ft | 286 kts | 302° |
| 2026-04-23 19:15 | 40.78634 | 17.61765 | 10181 ft | 290 kts | 306° |
| 2026-04-23 19:15 | 40.79658 | 17.59484 | 10745 ft | 299 kts | 305° |
| 2026-04-23 19:15 | 40.80703 | 17.57049 | 11388 ft | 306 kts | 303° |
| 2026-04-23 19:16 | 40.81716 | 17.54568 | 12062 ft | 312 kts | 302° |
| 2026-04-23 19:16 | 40.82722 | 17.52037 | 12782 ft | 316 kts | 302° |
| 2026-04-23 19:16 | 40.83736 | 17.49465 | 13435 ft | 322 kts | 302° |
| 2026-04-23 19:17 | 40.85810 | 17.44202 | 14861 ft | 329 kts | 303° |
| 2026-04-23 19:17 | 40.86892 | 17.41498 | 15580 ft | 333 kts | 304° |
| 2026-04-23 19:17 | 40.88019 | 17.38842 | 16280 ft | 336 kts | 305° |
| 2026-04-23 19:17 | 40.89189 | 17.36180 | 16940 ft | 340 kts | 306° |
| 2026-04-23 19:18 | 40.90385 | 17.33484 | 17597 ft | 344 kts | 306° |
| 2026-04-23 19:18 | 40.91598 | 17.30733 | 18243 ft | 348 kts | 305° |
| 2026-04-23 19:18 | 40.92808 | 17.27969 | 18840 ft | 353 kts | 305° |
| 2026-04-23 19:18 | 40.94035 | 17.25148 | 19412 ft | 358 kts | 305° |
| 2026-04-23 19:19 | 40.96548 | 17.19352 | 20493 ft | 369 kts | 306° |
| 2026-04-23 19:19 | 40.97823 | 17.16404 | 21090 ft | 372 kts | 306° |
| 2026-04-23 19:20 | 41.00411 | 17.10405 | 22115 ft | 381 kts | 306° |
| 2026-04-23 19:20 | 41.01725 | 17.07357 | 22569 ft | 387 kts | 306° |
| 2026-04-23 19:20 | 41.03058 | 17.04260 | 23140 ft | 389 kts | 306° |
| 2026-04-23 19:20 | 41.04399 | 17.01142 | 23569 ft | 395 kts | 306° |
| 2026-04-23 19:21 | 41.05753 | 16.97989 | 24108 ft | 397 kts | 306° |
| 2026-04-23 19:21 | 41.08500 | 16.91582 | 25099 ft | 403 kts | 306° |
| 2026-04-23 19:21 | 41.09882 | 16.88354 | 25606 ft | 405 kts | 306° |
| 2026-04-23 19:22 | 41.11273 | 16.85101 | 26057 ft | 408 kts | 306° |
| 2026-04-23 19:22 | 41.12672 | 16.81828 | 26543 ft | 410 kts | 306° |
| 2026-04-23 19:22 | 41.15453 | 16.75199 | 27384 ft | 419 kts | 303° |
| 2026-04-23 19:23 | 41.16737 | 16.71775 | 27907 ft | 420 kts | 301° |
| 2026-04-23 19:23 | 41.17977 | 16.68275 | 28359 ft | 423 kts | 301° |
| 2026-04-23 19:23 | 41.19209 | 16.64725 | 28761 ft | 426 kts | 300° |
| 2026-04-23 19:24 | 41.21697 | 16.57563 | 29661 ft | 428 kts | 301° |
| 2026-04-23 19:24 | 41.22937 | 16.54020 | 30040 ft | 430 kts | 301° |
| 2026-04-23 19:24 | 41.25493 | 16.46773 | 30763 ft | 435 kts | 301° |
| 2026-04-23 19:25 | 41.28067 | 16.39497 | 31504 ft | 438 kts | 301° |
| 2026-04-23 19:25 | 41.30671 | 16.32139 | 32233 ft | 440 kts | 300° |
| 2026-04-23 19:26 | 41.33279 | 16.24749 | 32974 ft | 441 kts | 300° |
| 2026-04-23 19:26 | 41.34589 | 16.21031 | 33265 ft | 443 kts | 300° |
| 2026-04-23 19:27 | 41.37195 | 16.13623 | 33923 ft | 445 kts | 300° |
| 2026-04-23 19:27 | 41.41151 | 16.02343 | 34864 ft | 446 kts | 300° |
| 2026-04-23 19:28 | 41.43758 | 15.94872 | 35508 ft | 443 kts | 300° |
| 2026-04-23 19:28 | 41.46724 | 15.87632 | 35977 ft | 436 kts | 310° |
| 2026-04-23 19:29 | 41.48513 | 15.84365 | 36126 ft | 435 kts | 313° |
| 2026-04-23 19:29 | 41.52325 | 15.77949 | 36139 ft | 434 kts | 314° |
| 2026-04-23 19:30 | 41.57883 | 15.68346 | 36141 ft | 434 kts | 312° |
| 2026-04-23 19:31 | 41.63274 | 15.58589 | 36161 ft | 433 kts | 311° |
| 2026-04-23 19:31 | 41.66815 | 15.52059 | 36134 ft | 434 kts | 311° |
| 2026-04-23 19:32 | 41.70346 | 15.45507 | 36149 ft | 434 kts | 311° |
| 2026-04-23 19:32 | 41.73857 | 15.38970 | 36142 ft | 432 kts | 311° |
| 2026-04-23 19:33 | 41.77352 | 15.32442 | 36142 ft | 433 kts | 310° |
| 2026-04-23 19:33 | 41.82598 | 15.22623 | 36148 ft | 433 kts | 310° |
| 2026-04-23 19:34 | 41.86094 | 15.16062 | 36150 ft | 433 kts | 310° |
| 2026-04-23 19:35 | 41.91345 | 15.06178 | 36146 ft | 433 kts | 310° |
| 2026-04-23 19:35 | 41.94821 | 14.99614 | 36152 ft | 432 kts | 310° |
| 2026-04-23 19:36 | 41.98320 | 14.93000 | 36160 ft | 432 kts | 310° |
| 2026-04-23 19:36 | 42.01794 | 14.86419 | 36158 ft | 433 kts | 310° |
| 2026-04-23 19:37 | 42.05253 | 14.79848 | 36159 ft | 432 kts | 310° |
| 2026-04-23 19:37 | 42.08733 | 14.73225 | 36321 ft | 439 kts | 310° |
| 2026-04-23 19:37 | 42.10507 | 14.69847 | 36610 ft | 439 kts | 310° |
| 2026-04-23 19:38 | 42.12256 | 14.66507 | 37019 ft | 437 kts | 310° |
| 2026-04-23 19:38 | 42.14006 | 14.63161 | 37307 ft | 436 kts | 310° |
| 2026-04-23 19:38 | 42.15748 | 14.59827 | 37524 ft | 437 kts | 310° |
| 2026-04-23 19:38 | 42.17517 | 14.56438 | 37799 ft | 437 kts | 310° |
| 2026-04-23 19:39 | 42.19263 | 14.53090 | 38027 ft | 437 kts | 310° |
| 2026-04-23 19:39 | 42.20993 | 14.49769 | 38175 ft | 439 kts | 310° |
| 2026-04-23 19:39 | 42.22769 | 14.46356 | 38175 ft | 440 kts | 310° |
| 2026-04-23 19:40 | 42.26266 | 14.39618 | 38185 ft | 434 kts | 310° |
| 2026-04-23 19:40 | 42.29765 | 14.32867 | 38177 ft | 437 kts | 309° |
| 2026-04-23 19:41 | 42.33230 | 14.26170 | 38184 ft | 437 kts | 309° |
| 2026-04-23 19:41 | 42.36701 | 14.19443 | 38178 ft | 436 kts | 309° |
| 2026-04-23 19:42 | 42.40169 | 14.12708 | 38183 ft | 437 kts | 309° |
| 2026-04-23 19:42 | 42.43648 | 14.05936 | 38187 ft | 436 kts | 309° |
| 2026-04-23 19:43 | 42.47102 | 13.99196 | 38188 ft | 436 kts | 310° |
| 2026-04-23 19:43 | 42.50557 | 13.92440 | 38187 ft | 435 kts | 309° |
| 2026-04-23 19:44 | 42.53992 | 13.85711 | 38194 ft | 436 kts | 309° |
| 2026-04-23 19:44 | 42.57440 | 13.78940 | 38178 ft | 435 kts | 309° |
| 2026-04-23 19:45 | 42.60864 | 13.72199 | 38176 ft | 435 kts | 309° |
| 2026-04-23 19:45 | 42.64296 | 13.65428 | 38171 ft | 436 kts | 309° |
| 2026-04-23 19:46 | 42.67710 | 13.58675 | 38167 ft | 435 kts | 309° |
| 2026-04-23 19:46 | 42.71114 | 13.51928 | 38160 ft | 435 kts | 309° |
| 2026-04-23 19:47 | 42.74532 | 13.45141 | 38161 ft | 436 kts | 309° |
| 2026-04-23 19:47 | 42.77938 | 13.38359 | 38155 ft | 435 kts | 309° |
| 2026-04-23 19:48 | 42.81342 | 13.31569 | 38155 ft | 436 kts | 308° |
| 2026-04-23 19:48 | 42.84749 | 13.24755 | 38154 ft | 435 kts | 309° |
| 2026-04-23 19:49 | 42.88171 | 13.17894 | 38151 ft | 436 kts | 308° |
| 2026-04-23 19:49 | 42.91579 | 13.11048 | 38155 ft | 436 kts | 308° |
| 2026-04-23 19:50 | 42.94986 | 13.04188 | 38150 ft | 436 kts | 308° |
| 2026-04-23 19:50 | 42.98364 | 12.97370 | 38172 ft | 436 kts | 308° |
| 2026-04-23 19:51 | 43.01751 | 12.90518 | 38169 ft | 436 kts | 308° |
| 2026-04-23 19:51 | 43.05133 | 12.83661 | 38180 ft | 436 kts | 308° |
| 2026-04-23 19:52 | 43.08514 | 12.76790 | 38170 ft | 435 kts | 308° |
| 2026-04-23 19:52 | 43.11885 | 12.69922 | 38165 ft | 435 kts | 308° |
| 2026-04-23 19:53 | 43.15237 | 12.63076 | 38166 ft | 435 kts | 308° |
| 2026-04-23 19:53 | 43.18597 | 12.56201 | 38162 ft | 436 kts | 308° |
| 2026-04-23 19:54 | 43.21952 | 12.49316 | 38160 ft | 435 kts | 308° |
| 2026-04-23 19:54 | 43.25307 | 12.42420 | 38160 ft | 435 kts | 308° |
| 2026-04-23 19:55 | 43.28637 | 12.35556 | 38162 ft | 435 kts | 308° |
| 2026-04-23 19:55 | 43.31988 | 12.28635 | 38161 ft | 435 kts | 308° |
| 2026-04-23 19:56 | 43.35329 | 12.21717 | 38162 ft | 434 kts | 308° |
| 2026-04-23 19:56 | 43.38663 | 12.14797 | 38166 ft | 434 kts | 307° |
| 2026-04-23 19:57 | 43.42025 | 12.07803 | 38162 ft | 434 kts | 307° |
| 2026-04-23 19:57 | 43.45327 | 12.00918 | 38164 ft | 433 kts | 308° |
| 2026-04-23 19:58 | 43.48653 | 11.93966 | 38163 ft | 435 kts | 307° |
| 2026-04-23 19:58 | 43.51958 | 11.87043 | 38165 ft | 434 kts | 308° |
| 2026-04-23 19:59 | 43.55265 | 11.80099 | 38169 ft | 434 kts | 307° |
| 2026-04-23 19:59 | 43.58557 | 11.73171 | 38162 ft | 434 kts | 307° |
| 2026-04-23 20:00 | 43.61866 | 11.66188 | 38162 ft | 434 kts | 307° |
| 2026-04-23 20:00 | 43.65178 | 11.59183 | 38169 ft | 434 kts | 308° |
| 2026-04-23 20:01 | 43.68484 | 11.52176 | 38164 ft | 433 kts | 307° |
| 2026-04-23 20:01 | 43.71785 | 11.45160 | 38166 ft | 435 kts | 307° |
| 2026-04-23 20:02 | 43.75059 | 11.38185 | 38162 ft | 433 kts | 308° |
| 2026-04-23 20:02 | 43.78345 | 11.31170 | 38161 ft | 435 kts | 307° |
| 2026-04-23 20:03 | 43.81634 | 11.24131 | 38157 ft | 434 kts | 307° |
| 2026-04-23 20:03 | 43.84932 | 11.17056 | 38160 ft | 435 kts | 307° |
| 2026-04-23 20:04 | 43.88196 | 11.10033 | 38167 ft | 434 kts | 307° |
| 2026-04-23 20:04 | 43.91503 | 11.02903 | 38165 ft | 434 kts | 307° |
| 2026-04-23 20:05 | 43.94770 | 10.95846 | 38165 ft | 435 kts | 307° |
| 2026-04-23 20:05 | 43.98028 | 10.88789 | 38164 ft | 434 kts | 307° |
| 2026-04-23 20:06 | 44.01281 | 10.81723 | 38026 ft | 432 kts | 307° |
| 2026-04-23 20:06 | 44.02873 | 10.78252 | 37529 ft | 428 kts | 307° |
| 2026-04-23 20:06 | 44.04471 | 10.74769 | 36675 ft | 432 kts | 307° |
| 2026-04-23 20:06 | 44.06083 | 10.71258 | 35949 ft | 435 kts | 307° |
| 2026-04-23 20:07 | 44.07699 | 10.67734 | 35369 ft | 436 kts | 307° |
| 2026-04-23 20:07 | 44.09318 | 10.64150 | 34804 ft | 436 kts | 305° |
| 2026-04-23 20:07 | 44.10777 | 10.60468 | 34346 ft | 436 kts | 301° |
| 2026-04-23 20:07 | 44.11998 | 10.56593 | 34175 ft | 430 kts | 295° |
| 2026-04-23 20:08 | 44.12967 | 10.52756 | 34166 ft | 420 kts | 292° |
| 2026-04-23 20:08 | 44.14635 | 10.44974 | 34183 ft | 422 kts | 290° |
| 2026-04-23 20:09 | 44.16227 | 10.37103 | 34177 ft | 425 kts | 290° |
| 2026-04-23 20:09 | 44.17845 | 10.29153 | 33928 ft | 427 kts | 290° |
| 2026-04-23 20:09 | 44.18660 | 10.25212 | 33676 ft | 424 kts | 290° |
| 2026-04-23 20:10 | 44.19197 | 10.22618 | 33505 ft | 420 kts | 290° |
| 2026-04-23 20:10 | 44.20269 | 10.17446 | 33165 ft | 417 kts | 290° |
| 2026-04-23 20:10 | 44.21073 | 10.13579 | 32919 ft | 417 kts | 290° |
| 2026-04-23 20:10 | 44.21954 | 10.09760 | 32664 ft | 414 kts | 294° |
| 2026-04-23 20:11 | 44.23080 | 10.06079 | 32408 ft | 408 kts | 302° |
| 2026-04-23 20:11 | 44.24485 | 10.02711 | 32157 ft | 403 kts | 307° |
| 2026-04-23 20:11 | 44.26054 | 9.99482 | 31897 ft | 400 kts | 309° |
| 2026-04-23 20:11 | 44.27677 | 9.96353 | 31644 ft | 399 kts | 310° |
| 2026-04-23 20:12 | 44.29320 | 9.93249 | 31390 ft | 398 kts | 310° |
| 2026-04-23 20:12 | 44.30953 | 9.90164 | 31129 ft | 396 kts | 310° |
| 2026-04-23 20:12 | 44.32578 | 9.87068 | 30874 ft | 394 kts | 310° |
| 2026-04-23 20:12 | 44.34169 | 9.84010 | 30625 ft | 393 kts | 310° |
| 2026-04-23 20:13 | 44.35762 | 9.80923 | 30370 ft | 392 kts | 310° |
| 2026-04-23 20:13 | 44.37338 | 9.77850 | 30102 ft | 390 kts | 310° |
| 2026-04-23 20:13 | 44.38922 | 9.74749 | 29835 ft | 389 kts | 309° |
| 2026-04-23 20:13 | 44.40481 | 9.71687 | 29568 ft | 387 kts | 309° |
| 2026-04-23 20:14 | 44.42029 | 9.68638 | 29303 ft | 386 kts | 309° |
| 2026-04-23 20:14 | 44.43557 | 9.65622 | 29032 ft | 382 kts | 309° |
| 2026-04-23 20:14 | 44.45102 | 9.62631 | 28656 ft | 377 kts | 311° |
| 2026-04-23 20:14 | 44.46758 | 9.59814 | 28209 ft | 372 kts | 316° |
| 2026-04-23 20:15 | 44.48497 | 9.57174 | 27754 ft | 369 kts | 318° |
| 2026-04-23 20:15 | 44.50282 | 9.54598 | 27306 ft | 366 kts | 318° |
| 2026-04-23 20:15 | 44.52059 | 9.52068 | 26864 ft | 364 kts | 318° |
| 2026-04-23 20:15 | 44.53811 | 9.49570 | 26420 ft | 362 kts | 319° |
| 2026-04-23 20:16 | 44.55564 | 9.47055 | 25971 ft | 359 kts | 318° |
| 2026-04-23 20:16 | 44.57299 | 9.44553 | 25532 ft | 357 kts | 318° |
| 2026-04-23 20:16 | 44.59000 | 9.42086 | 25093 ft | 355 kts | 317° |
| 2026-04-23 20:16 | 44.60708 | 9.39600 | 24643 ft | 352 kts | 317° |
| 2026-04-23 20:17 | 44.62401 | 9.37130 | 24208 ft | 350 kts | 317° |
| 2026-04-23 20:17 | 44.64055 | 9.34709 | 23788 ft | 347 kts | 317° |
| 2026-04-23 20:17 | 44.65731 | 9.32252 | 23347 ft | 344 kts | 317° |
| 2026-04-23 20:17 | 44.67376 | 9.29838 | 22920 ft | 342 kts | 317° |
| 2026-04-23 20:18 | 44.68995 | 9.27458 | 22506 ft | 339 kts | 317° |
| 2026-04-23 20:18 | 44.70609 | 9.25084 | 22091 ft | 337 kts | 317° |
| 2026-04-23 20:18 | 44.72218 | 9.22716 | 21676 ft | 334 kts | 317° |
| 2026-04-23 20:18 | 44.73819 | 9.20358 | 21256 ft | 332 kts | 317° |
| 2026-04-23 20:19 | 44.75365 | 9.17952 | 20825 ft | 332 kts | 313° |
| 2026-04-23 20:19 | 44.76745 | 9.15352 | 20392 ft | 332 kts | 307° |
| 2026-04-23 20:19 | 44.77963 | 9.12634 | 19980 ft | 331 kts | 304° |
| 2026-04-23 20:19 | 44.79132 | 9.09826 | 19560 ft | 330 kts | 303° |
| 2026-04-23 20:20 | 44.80256 | 9.07067 | 19163 ft | 328 kts | 303° |
| 2026-04-23 20:20 | 44.81388 | 9.04286 | 18771 ft | 325 kts | 303° |
| 2026-04-23 20:20 | 44.82516 | 9.01529 | 18360 ft | 323 kts | 303° |
| 2026-04-23 20:20 | 44.83624 | 8.98835 | 17967 ft | 322 kts | 304° |
| 2026-04-23 20:21 | 44.84751 | 8.96109 | 17574 ft | 320 kts | 304° |
| 2026-04-23 20:21 | 44.85860 | 8.93434 | 17182 ft | 319 kts | 304° |
| 2026-04-23 20:21 | 44.86979 | 8.90734 | 16776 ft | 318 kts | 303° |
| 2026-04-23 20:21 | 44.88094 | 8.88043 | 16373 ft | 316 kts | 303° |
| 2026-04-23 20:22 | 44.89188 | 8.85400 | 15984 ft | 315 kts | 303° |
| 2026-04-23 20:22 | 44.90289 | 8.82734 | 15594 ft | 313 kts | 303° |
| 2026-04-23 20:22 | 44.91374 | 8.80108 | 15209 ft | 312 kts | 303° |
| 2026-04-23 20:22 | 44.92462 | 8.77471 | 14815 ft | 311 kts | 303° |
| 2026-04-23 20:23 | 44.93547 | 8.74838 | 14431 ft | 309 kts | 303° |
| 2026-04-23 20:23 | 44.94611 | 8.72254 | 14041 ft | 308 kts | 303° |
| 2026-04-23 20:23 | 44.95684 | 8.69649 | 13649 ft | 306 kts | 303° |
| 2026-04-23 20:23 | 44.96753 | 8.67045 | 13263 ft | 305 kts | 303° |
| 2026-04-23 20:24 | 44.97813 | 8.64464 | 12883 ft | 303 kts | 303° |
| 2026-04-23 20:24 | 44.98861 | 8.61952 | 12500 ft | 300 kts | 306° |
| 2026-04-23 20:24 | 45.00145 | 8.59673 | 12152 ft | 294 kts | 321° |
| 2026-04-23 20:24 | 45.01888 | 8.58274 | 11856 ft | 284 kts | 346° |
| 2026-04-23 20:25 | 45.03818 | 8.57712 | 11620 ft | 282 kts | 352° |
| 2026-04-23 20:25 | 45.05743 | 8.57264 | 11368 ft | 283 kts | 352° |
| 2026-04-23 20:25 | 45.07682 | 8.56784 | 11109 ft | 281 kts | 351° |
| 2026-04-23 20:25 | 45.09585 | 8.56278 | 10871 ft | 276 kts | 351° |
| 2026-04-23 20:26 | 45.11456 | 8.55763 | 10628 ft | 272 kts | 350° |
| 2026-04-23 20:26 | 45.13309 | 8.55246 | 10276 ft | 271 kts | 350° |
| 2026-04-23 20:26 | 45.15154 | 8.54730 | 10016 ft | 265 kts | 350° |
| 2026-04-23 20:26 | 45.16936 | 8.54233 | 9749 ft | 263 kts | 350° |
| 2026-04-23 20:27 | 45.18733 | 8.53734 | 9399 ft | 263 kts | 350° |
| 2026-04-23 20:27 | 45.20519 | 8.53237 | 9124 ft | 259 kts | 350° |
| 2026-04-23 20:27 | 45.22233 | 8.52760 | 9015 ft | 248 kts | 350° |
| 2026-04-23 20:27 | 45.23947 | 8.52284 | 8949 ft | 253 kts | 350° |
| 2026-04-23 20:28 | 45.25687 | 8.51803 | 8706 ft | 257 kts | 350° |
| 2026-04-23 20:28 | 45.27450 | 8.51314 | 8405 ft | 255 kts | 350° |
| 2026-04-23 20:28 | 45.29182 | 8.50916 | 8084 ft | 253 kts | 357° |
| 2026-04-23 20:28 | 45.30907 | 8.51187 | 7788 ft | 248 kts | 22° |
| 2026-04-23 20:29 | 45.32308 | 8.52504 | 7514 ft | 245 kts | 46° |
| 2026-04-23 20:29 | 45.33298 | 8.54471 | 7221 ft | 244 kts | 62° |
| 2026-04-23 20:29 | 45.33871 | 8.56699 | 6934 ft | 243 kts | 76° |
| 2026-04-23 20:29 | 45.34179 | 8.59049 | 6646 ft | 242 kts | 79° |
| 2026-04-23 20:30 | 45.34380 | 8.61430 | 6295 ft | 244 kts | 88° |
| 2026-04-23 20:30 | 45.33160 | 8.65744 | 5920 ft | 238 kts | 139° |
| 2026-04-23 20:30 | 45.31720 | 8.66949 | 5956 ft | 244 kts | 159° |
| 2026-04-23 20:31 | 45.30067 | 8.67562 | 5958 ft | 249 kts | 169° |
| 2026-04-23 20:31 | 45.28355 | 8.67985 | 5969 ft | 248 kts | 170° |
| 2026-04-23 20:31 | 45.26666 | 8.68395 | 5970 ft | 248 kts | 169° |
| 2026-04-23 20:31 | 45.24965 | 8.68836 | 5987 ft | 248 kts | 168° |
| 2026-04-23 20:32 | 45.23255 | 8.69299 | 6019 ft | 248 kts | 168° |
| 2026-04-23 20:32 | 45.21571 | 8.69762 | 6003 ft | 248 kts | 168° |
| 2026-04-23 20:32 | 45.19865 | 8.70231 | 6001 ft | 247 kts | 168° |
| 2026-04-23 20:32 | 45.18190 | 8.70691 | 6000 ft | 239 kts | 168° |
| 2026-04-23 20:33 | 45.16601 | 8.71127 | 5892 ft | 232 kts | 168° |
| 2026-04-23 20:33 | 45.15022 | 8.71561 | 5666 ft | 230 kts | 168° |
| 2026-04-23 20:33 | 45.13453 | 8.71992 | 5417 ft | 228 kts | 168° |
| 2026-04-23 20:33 | 45.11901 | 8.72418 | 5166 ft | 227 kts | 168° |
| 2026-04-23 20:34 | 45.10347 | 8.72844 | 4952 ft | 226 kts | 168° |
| 2026-04-23 20:34 | 45.08798 | 8.73268 | 4954 ft | 230 kts | 168° |
| 2026-04-23 20:34 | 45.07203 | 8.73704 | 4943 ft | 233 kts | 168° |
| 2026-04-23 20:34 | 45.05626 | 8.74159 | 4944 ft | 233 kts | 165° |
| 2026-04-23 20:35 | 45.04134 | 8.75055 | 4921 ft | 231 kts | 141° |
| 2026-04-23 20:35 | 45.03184 | 8.76808 | 4932 ft | 229 kts | 109° |
| 2026-04-23 20:35 | 45.02924 | 8.79011 | 4950 ft | 227 kts | 87° |
| 2026-04-23 20:35 | 45.03115 | 8.81220 | 4951 ft | 226 kts | 78° |
| 2026-04-23 20:36 | 45.03431 | 8.83390 | 4948 ft | 225 kts | 77° |
| 2026-04-23 20:36 | 45.03897 | 8.85503 | 4943 ft | 225 kts | 62° |
| 2026-04-23 20:36 | 45.04866 | 8.87170 | 4930 ft | 224 kts | 32° |
| 2026-04-23 20:36 | 45.06309 | 8.87980 | 4800 ft | 227 kts | 9° |
| 2026-04-23 20:37 | 45.07881 | 8.87993 | 4552 ft | 225 kts | 352° |
| 2026-04-23 20:37 | 45.09412 | 8.87571 | 4298 ft | 223 kts | 348° |
| 2026-04-23 20:37 | 45.10927 | 8.87106 | 4041 ft | 222 kts | 348° |
| 2026-04-23 20:37 | 45.12421 | 8.86676 | 3958 ft | 216 kts | 349° |
| 2026-04-23 20:38 | 45.13915 | 8.86266 | 3960 ft | 220 kts | 349° |
| 2026-04-23 20:38 | 45.15419 | 8.85859 | 3951 ft | 221 kts | 349° |
| 2026-04-23 20:38 | 45.16940 | 8.85447 | 3964 ft | 221 kts | 349° |
| 2026-04-23 20:38 | 45.18438 | 8.85041 | 3966 ft | 220 kts | 349° |
| 2026-04-23 20:39 | 45.19949 | 8.84630 | 3946 ft | 221 kts | 349° |
| 2026-04-23 20:39 | 45.21444 | 8.84224 | 3953 ft | 220 kts | 349° |
| 2026-04-23 20:39 | 45.22961 | 8.83811 | 3955 ft | 221 kts | 349° |
| 2026-04-23 20:39 | 45.24474 | 8.83399 | 3964 ft | 221 kts | 349° |
| 2026-04-23 20:40 | 45.25987 | 8.82987 | 3954 ft | 221 kts | 349° |
| 2026-04-23 20:40 | 45.27486 | 8.82578 | 3969 ft | 220 kts | 349° |
| 2026-04-23 20:40 | 45.28997 | 8.82166 | 3955 ft | 217 kts | 349° |
| 2026-04-23 20:40 | 45.30472 | 8.81764 | 3952 ft | 217 kts | 349° |
| 2026-04-23 20:41 | 45.31962 | 8.81359 | 3957 ft | 217 kts | 349° |
| 2026-04-23 20:41 | 45.33438 | 8.80957 | 3968 ft | 218 kts | 349° |
| 2026-04-23 20:41 | 45.34932 | 8.80550 | 3968 ft | 217 kts | 349° |
| 2026-04-23 20:41 | 45.36406 | 8.80149 | 3971 ft | 217 kts | 349° |
| 2026-04-23 20:42 | 45.37916 | 8.79785 | 3970 ft | 218 kts | 352° |
| 2026-04-23 20:42 | 45.39413 | 8.79492 | 3973 ft | 218 kts | 353° |
| 2026-04-23 20:42 | 45.40924 | 8.79210 | 3972 ft | 218 kts | 353° |
| 2026-04-23 20:42 | 45.42418 | 8.78924 | 3972 ft | 218 kts | 353° |
| 2026-04-23 20:43 | 45.43926 | 8.78603 | 3967 ft | 217 kts | 350° |
| 2026-04-23 20:43 | 45.45434 | 8.78194 | 3567 ft | 231 kts | 349° |
| 2026-04-23 20:43 | 45.47017 | 8.77744 | 3313 ft | 229 kts | 349° |
| 2026-04-23 20:43 | 45.48572 | 8.77317 | 3147 ft | 223 kts | 349° |
| 2026-04-23 20:44 | 45.50068 | 8.76913 | 2976 ft | 216 kts | 348° |
| 2026-04-23 20:44 | 45.51485 | 8.76491 | 2834 ft | 201 kts | 349° |
| 2026-04-23 20:44 | 45.52837 | 8.76141 | 2450 ft | 194 kts | 349° |
| 2026-04-23 20:44 | 45.54122 | 8.75801 | 2160 ft | 178 kts | 348° |
| 2026-04-23 20:45 | 45.55254 | 8.75484 | 1994 ft | 163 kts | 348° |
| 2026-04-23 20:45 | 45.56339 | 8.75184 | 1737 ft | 157 kts | 347° |
| 2026-04-23 20:45 | 45.57399 | 8.74896 | 1547 ft | 153 kts | 348° |
| 2026-04-23 20:45 | 45.58453 | 8.74605 | 1344 ft | 155 kts | 348° |
| 2026-04-23 20:46 | 45.59512 | 8.74316 | 1139 ft | 155 kts | 349° |
| 2026-04-23 20:46 | 45.60568 | 8.74027 | 934 ft | 154 kts | 348° |
| 2026-04-23 20:46 | 45.61622 | 8.73735 | 747 ft | 155 kts | 348° |
| 2026-04-23 20:46 | 45.62564 | 8.73484 | 720 ft | 106 kts | 349° |
| 2026-04-23 20:47 | 45.63002 | 8.73358 | 729 ft | 13 kts | 341° |
| 2026-04-23 20:47 | 45.63081 | 8.73311 | 731 ft | 14 kts | 332° |
| 2026-04-23 20:47 | 45.63174 | 8.73217 | 733 ft | 18 kts | 320° |
| 2026-04-23 20:47 | 45.63261 | 8.73073 | 736 ft | 20 kts | 304° |
| 2026-04-23 20:48 | 45.63285 | 8.73022 | 737 ft | 2 kts | 304° |
| 2026-04-23 20:48 | 45.63301 | 8.72988 | 737 ft | 6 kts | 302° |
| 2026-04-23 20:48 | 45.63332 | 8.72920 | 739 ft | 10 kts | 305° |
| 2026-04-23 20:48 | 45.63377 | 8.72828 | 740 ft | 12 kts | 303° |
| 2026-04-23 20:49 | 45.63405 | 8.72697 | 741 ft | 12 kts | 276° |
| 2026-04-23 20:49 | 45.63401 | 8.72595 | 742 ft | 11 kts | 261° |
| 2026-04-23 20:49 | 45.63384 | 8.72457 | 743 ft | 14 kts | 259° |
| 2026-04-23 20:49 | 45.63361 | 8.72290 | 743 ft | 19 kts | 258° |
| 2026-04-23 20:50 | 45.63334 | 8.72092 | 743 ft | 18 kts | 259° |
| 2026-04-23 20:50 | 45.63313 | 8.71973 | 743 ft | 9 kts | 218° |
| 2026-04-23 20:50 | 45.63224 | 8.71986 | 741 ft | 16 kts | 168° |
| 2026-04-23 20:50 | 45.63087 | 8.72023 | 739 ft | 19 kts | 168° |
| 2026-04-23 20:51 | 45.63005 | 8.72033 | 737 ft | 7 kts | 242° |
| 2026-04-23 20:51 | 45.62991 | 8.71946 | 737 ft | 10 kts | 258° |
| 2026-04-23 20:51 | 45.62973 | 8.71822 | 737 ft | 14 kts | 259° |
| 2026-04-23 20:51 | 45.62955 | 8.71691 | 737 ft | 13 kts | 259° |
| 2026-04-23 20:52 | 45.62942 | 8.71595 | 737 ft | 1 kts | 259° |
| 2026-04-23 20:52 | 45.62940 | 8.71577 | 737 ft | 2 kts | 259° |
| 2026-04-23 20:52 | 45.62923 | 8.71569 | 737 ft | 5 kts | 183° |
| 2026-04-23 20:52 | 45.62897 | 8.71573 | 736 ft | 2 kts | 172° |
| 2026-04-23 20:53 | 45.62874 | 8.71579 | 736 ft | 1 kts | 168° |
| 2026-04-23 20:53 | 45.62864 | 8.71582 | 736 ft | 0 kts | 168° |